createdAt,value
2017-02-02T00:01:02.922Z,1001.76
2017-02-02T00:02:13.679Z,1001.77
2017-02-02T00:03:24.427Z,1001.8
2017-02-02T00:04:35.177Z,1001.79
2017-02-02T00:05:45.527Z,1001.84
2017-02-02T00:06:56.275Z,1001.84
2017-02-02T00:08:06.671Z,1001.86
2017-02-02T00:09:17.028Z,1001.83
2017-02-02T00:10:27.757Z,1001.82
2017-02-02T00:11:38.501Z,1001.85
2017-02-02T00:12:48.451Z,1001.81
2017-02-02T00:13:59.237Z,1001.76
2017-02-02T00:15:09.208Z,1001.74
2017-02-02T00:16:19.161Z,1001.78
2017-02-02T00:17:29.906Z,1001.75
2017-02-02T00:18:40.643Z,1001.75
2017-02-02T00:19:50.996Z,1001.74
2017-02-02T00:21:01.748Z,1001.69
2017-02-02T00:22:12.496Z,1001.68
2017-02-02T00:23:23.246Z,1001.67
2017-02-02T00:24:33.988Z,1001.64
2017-02-02T00:25:44.731Z,1001.68
2017-02-02T00:26:55.112Z,1001.67
2017-02-02T00:28:05.854Z,1001.63
2017-02-02T00:29:16.850Z,1001.61
2017-02-02T00:30:26.806Z,1001.6
2017-02-02T00:31:35.586Z,1001.58
2017-02-02T00:32:45.936Z,1001.57
2017-02-02T00:33:56.290Z,1001.58
2017-02-02T00:35:07.038Z,1001.59
2017-02-02T00:36:18.025Z,1001.57
2017-02-02T00:37:27.985Z,1001.55
2017-02-02T00:38:38.744Z,1001.58
2017-02-02T00:39:49.489Z,1001.56
2017-02-02T00:41:00.250Z,1001.61
2017-02-02T00:42:09.822Z,1001.63
2017-02-02T00:43:20.160Z,1001.55
2017-02-02T00:44:30.953Z,1001.6
2017-02-02T00:45:41.297Z,1001.61
2017-02-02T00:46:52.045Z,1001.62
2017-02-02T00:48:02.008Z,1001.66
2017-02-02T00:49:12.385Z,1001.66
2017-02-02T00:50:23.139Z,1001.62
2017-02-02T00:51:33.487Z,1001.65
2017-02-02T00:52:44.224Z,1001.65
2017-02-02T00:53:54.977Z,1001.63
2017-02-02T00:55:05.312Z,1001.65
2017-02-02T00:56:15.267Z,1001.63
2017-02-02T00:57:26.024Z,1001.66
2017-02-02T00:58:36.397Z,1001.68
2017-02-02T00:59:47.149Z,1001.66
2017-02-02T01:00:57.878Z,1001.64
2017-02-02T01:02:08.606Z,1001.65
2017-02-02T01:03:18.935Z,1001.61
2017-02-02T01:04:28.878Z,1001.66
2017-02-02T01:05:39.236Z,1001.66
2017-02-02T01:06:49.601Z,1001.66
2017-02-02T01:08:00.355Z,1001.66
2017-02-02T01:09:11.074Z,1001.71
2017-02-02T01:10:21.813Z,1001.69
2017-02-02T01:11:32.575Z,1001.74
2017-02-02T01:12:42.524Z,1001.7
2017-02-02T01:13:53.269Z,1001.73
2017-02-02T01:15:03.220Z,1001.69
2017-02-02T01:16:13.958Z,1001.64
2017-02-02T01:17:24.715Z,1001.66
2017-02-02T01:18:35.480Z,1001.64
2017-02-02T01:19:45.830Z,1001.61
2017-02-02T01:20:56.587Z,1001.59
2017-02-02T01:22:06.943Z,1001.61
2017-02-02T01:23:16.900Z,1001.59
2017-02-02T01:24:27.256Z,1001.63
2017-02-02T01:25:37.997Z,1001.66
2017-02-02T01:26:48.347Z,1001.66
2017-02-02T01:27:58.696Z,1001.71
2017-02-02T01:29:09.430Z,1001.66
2017-02-02T01:30:20.186Z,1001.69
2017-02-02T01:31:30.925Z,1001.64
2017-02-02T01:32:41.283Z,1001.64
2017-02-02T01:33:50.843Z,1001.64
2017-02-02T01:35:01.588Z,1001.61
2017-02-02T01:36:12.330Z,1001.58
2017-02-02T01:37:23.067Z,1001.55
2017-02-02T01:38:33.418Z,1001.52
2017-02-02T01:39:43.774Z,1001.53
2017-02-02T01:40:54.519Z,1001.53
2017-02-02T01:42:04.876Z,1001.51
2017-02-02T01:43:15.614Z,1001.47
2017-02-02T01:44:26.361Z,1001.51
2017-02-02T01:45:37.112Z,1001.51
2017-02-02T01:46:47.072Z,1001.48
2017-02-02T01:47:57.421Z,1001.47
2017-02-02T01:49:08.177Z,1001.51
2017-02-02T01:50:18.921Z,1001.51
2017-02-02T01:51:29.270Z,1001.53
2017-02-02T01:52:40.018Z,1001.52
2017-02-02T01:53:50.766Z,1001.51
2017-02-02T01:55:01.521Z,1001.47
2017-02-02T01:56:11.870Z,1001.49
2017-02-02T01:57:22.225Z,1001.5
2017-02-02T01:58:32.961Z,1001.52
2017-02-02T01:59:43.712Z,1001.46
2017-02-02T02:00:54.064Z,1001.46
2017-02-02T02:02:04.821Z,1001.43
2017-02-02T02:03:15.178Z,1001.44
2017-02-02T02:04:25.524Z,1001.45
2017-02-02T02:05:36.502Z,1001.43
2017-02-02T02:06:47.249Z,1001.44
2017-02-02T02:07:58.006Z,1001.42
2017-02-02T02:09:08.367Z,1001.39
2017-02-02T02:10:18.702Z,1001.36
2017-02-02T02:11:28.656Z,1001.35
2017-02-02T02:12:39.002Z,1001.33
2017-02-02T02:13:49.737Z,1001.36
2017-02-02T02:14:59.685Z,1001.34
2017-02-02T02:16:10.031Z,1001.39
2017-02-02T02:17:20.380Z,1001.41
2017-02-02T02:18:31.124Z,1001.4
2017-02-02T02:19:41.872Z,1001.4
2017-02-02T02:20:52.639Z,1001.41
2017-02-02T02:22:02.591Z,1001.47
2017-02-02T02:23:12.958Z,1001.48
2017-02-02T02:24:23.699Z,1001.45
2017-02-02T02:25:34.436Z,1001.45
2017-02-02T02:26:44.777Z,1001.44
2017-02-02T02:27:55.520Z,1001.47
2017-02-02T02:29:05.873Z,1001.48
2017-02-02T02:30:16.605Z,1001.45
2017-02-02T02:31:27.367Z,1001.41
2017-02-02T02:32:37.725Z,1001.46
2017-02-02T02:33:48.093Z,1001.46
2017-02-02T02:34:57.656Z,1001.46
2017-02-02T02:36:08.014Z,1001.44
2017-02-02T02:37:18.377Z,1001.43
2017-02-02T02:38:29.124Z,1001.45
2017-02-02T02:39:39.855Z,1001.41
2017-02-02T02:40:50.208Z,1001.46
2017-02-02T02:42:00.955Z,1001.55
2017-02-02T02:43:11.305Z,1001.56
2017-02-02T02:44:22.037Z,1001.55
2017-02-02T02:45:32.392Z,1001.55
2017-02-02T02:46:43.124Z,1001.59
2017-02-02T02:47:53.475Z,1001.59
2017-02-02T02:49:03.841Z,1001.52
2017-02-02T02:50:14.594Z,1001.55
2017-02-02T02:51:24.948Z,1001.5
2017-02-02T02:52:35.685Z,1001.51
2017-02-02T02:53:46.021Z,1001.46
2017-02-02T02:54:56.005Z,1001.47
2017-02-02T02:56:06.753Z,1001.49
2017-02-02T02:57:17.092Z,1001.54
2017-02-02T02:58:27.449Z,1001.54
2017-02-02T02:59:38.201Z,1001.51
2017-02-02T03:00:48.582Z,1001.51
2017-02-02T03:32:46.530Z,1001.54
2017-02-02T03:33:57.346Z,1001.51
2017-02-02T03:35:08.077Z,1001.52
2017-02-02T03:36:18.813Z,1001.49
2017-02-02T03:37:29.162Z,1001.51
2017-02-02T03:38:39.509Z,1001.51
2017-02-02T03:39:50.244Z,1001.55
2017-02-02T03:40:59.795Z,1001.55
2017-02-02T03:42:10.138Z,1001.55
2017-02-02T03:43:20.088Z,1001.49
2017-02-02T03:44:30.423Z,1001.44
2017-02-02T03:45:40.772Z,1001.49
2017-02-02T03:46:50.723Z,1001.44
2017-02-02T03:48:01.091Z,1001.37
2017-02-02T03:49:11.433Z,1001.33
2017-02-02T03:50:22.164Z,1001.34
2017-02-02T03:51:32.906Z,1001.31
2017-02-02T03:52:43.255Z,1001.32
2017-02-02T03:53:53.600Z,1001.35
2017-02-02T03:55:03.937Z,1001.29
2017-02-02T03:56:14.288Z,1001.28
2017-02-02T03:57:25.035Z,1001.29
2017-02-02T03:58:34.991Z,1001.27
2017-02-02T03:59:45.335Z,1001.28
2017-02-02T04:00:55.296Z,1001.29
2017-02-02T04:02:06.053Z,1001.3
2017-02-02T04:03:16.794Z,1001.3
2017-02-02T04:04:27.136Z,1001.3
2017-02-02T04:05:37.877Z,1001.29
2017-02-02T04:06:48.215Z,1001.28
2017-02-02T04:07:58.176Z,1001.29
2017-02-02T04:09:08.537Z,1001.25
2017-02-02T04:10:19.298Z,1001.26
2017-02-02T04:11:29.656Z,1001.33
2017-02-02T04:12:40.398Z,1001.34
2017-02-02T04:13:50.736Z,1001.36
2017-02-02T04:15:01.477Z,1001.37
2017-02-02T04:16:12.213Z,1001.38
2017-02-02T04:17:22.951Z,1001.41
2017-02-02T04:18:32.910Z,1001.39
2017-02-02T04:19:42.071Z,1001.42
2017-02-02T04:20:53.018Z,1001.42
2017-02-02T04:22:03.356Z,1001.33
2017-02-02T04:23:13.759Z,1001.32
2017-02-02T04:24:24.528Z,1001.36
2017-02-02T04:25:35.267Z,1001.42
2017-02-02T04:26:45.219Z,1001.44
2017-02-02T04:27:55.969Z,1001.44
2017-02-02T04:29:05.921Z,1001.43
2017-02-02T04:30:16.266Z,1001.44
2017-02-02T04:31:27.014Z,1001.47
2017-02-02T04:32:37.367Z,1001.4
2017-02-02T04:33:47.723Z,1001.34
2017-02-02T04:34:58.077Z,1001.31
2017-02-02T04:36:08.426Z,1001.31
2017-02-02T04:37:19.165Z,1001.3
2017-02-02T04:38:29.505Z,1001.31
2017-02-02T04:39:39.460Z,1001.26
2017-02-02T04:40:49.423Z,1001.25
2017-02-02T04:42:00.171Z,1001.31
2017-02-02T04:43:10.502Z,1001.33
2017-02-02T04:44:20.873Z,1001.34
2017-02-02T04:45:31.612Z,1001.28
2017-02-02T04:46:41.562Z,1001.27
2017-02-02T04:47:51.944Z,1001.29
2017-02-02T04:49:02.281Z,1001.29
2017-02-02T04:50:12.630Z,1001.3
2017-02-02T04:51:23.364Z,1001.32
2017-02-02T04:52:34.111Z,1001.34
2017-02-02T04:53:44.458Z,1001.34
2017-02-02T04:54:55.199Z,1001.3
2017-02-02T04:56:05.566Z,1001.31
2017-02-02T04:57:15.530Z,1001.34
2017-02-02T04:58:25.500Z,1001.35
2017-02-02T04:59:36.245Z,1001.35
2017-02-02T05:00:46.983Z,1001.39
2017-02-02T05:01:57.732Z,1001.42
2017-02-02T05:03:06.913Z,1001.36
2017-02-02T05:04:17.298Z,1001.35
2017-02-02T05:05:28.033Z,1001.36
2017-02-02T05:06:38.376Z,1001.37
2017-02-02T05:07:49.119Z,1001.37
2017-02-02T05:08:59.862Z,1001.36
2017-02-02T05:10:10.596Z,1001.39
2017-02-02T05:11:20.948Z,1001.34
2017-02-02T05:12:31.700Z,1001.26
2017-02-02T05:13:41.682Z,1001.24
2017-02-02T05:14:52.061Z,1001.27
2017-02-02T05:16:02.800Z,1001.27
2017-02-02T05:17:13.539Z,1001.29
2017-02-02T05:18:23.889Z,1001.27
2017-02-02T05:19:34.628Z,1001.26
2017-02-02T05:20:45.380Z,1001.28
2017-02-02T05:21:55.755Z,1001.26
2017-02-02T05:23:05.725Z,1001.28
2017-02-02T05:24:16.476Z,1001.34
2017-02-02T05:25:27.216Z,1001.39
2017-02-02T05:26:37.569Z,1001.43
2017-02-02T05:27:47.127Z,1001.46
2017-02-02T05:28:57.876Z,1001.49
2017-02-02T05:30:08.636Z,1001.51
2017-02-02T05:31:19.382Z,1001.52
2017-02-02T05:32:30.126Z,1001.49
2017-02-02T05:33:40.285Z,1001.5
2017-02-02T05:34:51.029Z,1001.55
2017-02-02T05:36:01.774Z,1001.61
2017-02-02T05:37:12.515Z,1001.65
2017-02-02T05:38:22.879Z,1001.63
2017-02-02T05:39:32.845Z,1001.6
2017-02-02T05:40:43.600Z,1001.6
2017-02-02T05:41:53.943Z,1001.64
2017-02-02T05:43:04.694Z,1001.65
2017-02-02T05:44:15.041Z,1001.63
2017-02-02T05:45:25.388Z,1001.53
2017-02-02T05:46:36.134Z,1001.46
2017-02-02T05:47:46.877Z,1001.5
2017-02-02T05:48:56.864Z,1001.53
2017-02-02T05:50:07.599Z,1001.59
2017-02-02T05:51:18.339Z,1001.65
2017-02-02T05:52:28.688Z,1001.7
2017-02-02T05:53:39.035Z,1001.74
2017-02-02T05:54:49.398Z,1001.77
2017-02-02T05:55:59.737Z,1001.76
2017-02-02T05:57:10.087Z,1001.63
2017-02-02T05:58:20.433Z,1001.57
2017-02-02T05:59:31.191Z,1001.56
2017-02-02T06:00:41.939Z,1001.55
2017-02-02T06:01:52.302Z,1001.58
2017-02-02T06:03:02.263Z,1001.61
2017-02-02T06:04:13.027Z,1001.6
2017-02-02T06:05:23.770Z,1001.58
2017-02-02T06:06:34.114Z,1001.56
2017-02-02T06:07:44.476Z,1001.54
2017-02-02T06:08:54.063Z,1001.58
2017-02-02T06:10:04.447Z,1001.58
2017-02-02T06:11:15.192Z,1001.54
2017-02-02T06:12:25.162Z,1001.5
2017-02-02T06:13:35.509Z,1001.46
2017-02-02T06:14:45.862Z,1001.42
2017-02-02T06:15:56.213Z,1001.37
2017-02-02T06:17:06.962Z,1001.35
2017-02-02T06:18:17.700Z,1001.41
2017-02-02T06:19:28.053Z,1001.28
2017-02-02T06:20:38.808Z,1001.17
2017-02-02T06:21:49.155Z,1001.18
2017-02-02T06:22:59.508Z,1001.14
2017-02-02T06:24:09.884Z,1001.08
2017-02-02T06:25:19.841Z,1001.07
2017-02-02T06:26:30.171Z,1001.06
2017-02-02T06:27:40.170Z,1001.09
2017-02-02T06:28:50.913Z,1001.06
2017-02-02T06:30:01.665Z,1001.11
2017-02-02T06:31:12.415Z,1001.07
2017-02-02T06:32:23.167Z,1001.18
2017-02-02T06:33:33.122Z,1001.15
2017-02-02T06:34:43.480Z,1001.14
2017-02-02T06:35:54.253Z,1001.15
2017-02-02T06:37:04.213Z,1001.16
2017-02-02T06:38:14.951Z,1001.19
2017-02-02T06:39:25.717Z,1001.22
2017-02-02T06:40:36.057Z,1001.22
2017-02-02T06:41:46.801Z,1001.26
2017-02-02T06:42:57.139Z,1001.33
2017-02-02T06:44:07.490Z,1001.42
2017-02-02T06:45:17.834Z,1001.42
2017-02-02T06:46:28.571Z,1001.41
2017-02-02T06:47:39.314Z,1001.48
2017-02-02T06:48:49.661Z,1001.51
2017-02-02T06:49:59.617Z,1001.52
2017-02-02T06:51:09.563Z,1001.38
2017-02-02T06:52:20.544Z,1001.38
2017-02-02T06:53:30.883Z,1001.27
2017-02-02T06:54:41.241Z,1001.21
2017-02-02T06:55:51.995Z,1001.14
2017-02-02T06:57:02.748Z,1001.1
2017-02-02T06:58:13.098Z,1001.06
2017-02-02T06:59:23.832Z,1001.11
2017-02-02T07:00:34.578Z,1001.17
2017-02-02T07:01:44.923Z,1001.2
2017-02-02T07:02:55.291Z,1001.25
2017-02-02T07:04:05.247Z,1001.27
2017-02-02T07:05:14.812Z,1001.29
2017-02-02T07:06:25.561Z,1001.32
2017-02-02T07:07:35.922Z,1001.39
2017-02-02T07:08:46.679Z,1001.38
2017-02-02T07:09:57.427Z,1001.44
2017-02-02T07:11:07.772Z,1001.4
2017-02-02T07:12:18.110Z,1001.42
2017-02-02T07:13:27.281Z,1001.42
2017-02-02T07:14:38.026Z,1001.42
2017-02-02T07:15:48.776Z,1001.47
2017-02-02T07:16:59.511Z,1001.49
2017-02-02T07:18:09.873Z,1001.43
2017-02-02T07:19:20.618Z,1001.38
2017-02-02T07:20:30.962Z,1001.37
2017-02-02T07:21:41.720Z,1001.35
2017-02-02T07:22:52.085Z,1001.36
2017-02-02T07:24:02.447Z,1001.37
2017-02-02T07:25:12.404Z,1001.41
2017-02-02T07:26:22.770Z,1001.39
2017-02-02T07:27:31.938Z,1001.39
2017-02-02T07:28:42.285Z,1001.38
2017-02-02T07:29:52.644Z,1001.3
2017-02-02T07:31:02.598Z,1001.3
2017-02-02T07:32:12.177Z,1001.29
2017-02-02T07:33:22.522Z,1001.36
2017-02-02T07:34:33.259Z,1001.36
2017-02-02T07:35:43.209Z,1001.32
2017-02-02T07:36:53.576Z,1001.29
2017-02-02T07:38:04.318Z,1001.3
2017-02-02T07:39:15.060Z,1001.31
2017-02-02T07:40:25.806Z,1001.28
2017-02-02T07:41:35.981Z,1001.33
2017-02-02T07:42:46.721Z,1001.32
2017-02-02T07:43:57.467Z,1001.29
2017-02-02T07:45:08.204Z,1001.29
2017-02-02T07:46:18.969Z,1001.3
2017-02-02T07:47:28.926Z,1001.33
2017-02-02T07:48:39.285Z,1001.38
2017-02-02T07:49:49.620Z,1001.41
2017-02-02T07:50:59.971Z,1001.32
2017-02-02T07:52:10.713Z,1001.31
2017-02-02T07:53:21.456Z,1001.3
2017-02-02T07:54:31.423Z,1001.3
2017-02-02T07:55:42.161Z,1001.28
2017-02-02T07:56:52.900Z,1001.33
2017-02-02T07:58:03.250Z,1001.3
2017-02-02T07:59:13.209Z,1001.33
2017-02-02T08:00:23.956Z,1001.37
2017-02-02T08:01:34.707Z,1001.28
2017-02-02T08:02:45.463Z,1001.3
2017-02-02T08:03:55.409Z,1001.31
2017-02-02T08:05:05.377Z,1001.35
2017-02-02T08:06:16.129Z,1001.37
2017-02-02T08:07:26.880Z,1001.33
2017-02-02T08:08:37.083Z,1001.3
2017-02-02T08:09:47.827Z,1001.27
2017-02-02T08:10:58.566Z,1001.24
2017-02-02T08:12:09.312Z,1001.22
2017-02-02T08:13:19.660Z,1001.16
2017-02-02T08:14:30.417Z,1001.17
2017-02-02T08:15:40.418Z,1001.15
2017-02-02T08:16:50.394Z,1001.15
2017-02-02T08:18:00.742Z,1001.16
2017-02-02T08:19:11.093Z,1001.19
2017-02-02T08:20:21.441Z,1001.18
2017-02-02T08:21:31.405Z,1001.18
2017-02-02T08:22:42.163Z,1001.24
2017-02-02T08:23:52.510Z,1001.19
2017-02-02T08:25:02.866Z,1001.15
2017-02-02T08:26:13.654Z,1001.22
2017-02-02T08:27:23.999Z,1001.24
2017-02-02T08:28:34.760Z,1001.26
2017-02-02T08:29:45.488Z,1001.26
2017-02-02T08:30:56.268Z,1001.23
2017-02-02T08:32:07.012Z,1001.27
2017-02-02T08:33:17.374Z,1001.21
2017-02-02T08:34:27.725Z,1001.19
2017-02-02T08:35:38.477Z,1001.17
2017-02-02T08:36:49.225Z,1001.16
2017-02-02T08:37:59.591Z,1001.15
2017-02-02T08:39:09.555Z,1001.2
2017-02-02T08:40:20.309Z,1001.21
2017-02-02T08:41:31.080Z,1001.23
2017-02-02T08:42:41.441Z,1001.21
2017-02-02T08:43:52.164Z,1001.17
2017-02-02T08:45:01.743Z,1001.13
2017-02-02T08:46:11.323Z,1001.09
2017-02-02T08:47:22.063Z,1001.06
2017-02-02T08:48:32.052Z,1001.04
2017-02-02T08:49:42.427Z,1001.12
2017-02-02T08:50:53.208Z,1001.05
2017-02-02T08:52:03.558Z,1001.09
2017-02-02T08:53:14.311Z,1001.07
2017-02-02T08:54:25.065Z,1001.11
2017-02-02T08:55:35.830Z,1001.07
2017-02-02T08:56:46.568Z,1001.08
2017-02-02T08:57:57.335Z,1001.12
2017-02-02T08:59:07.691Z,1001.09
2017-02-02T09:00:18.064Z,1001.06
2017-02-02T09:01:28.020Z,1001.07
2017-02-02T09:02:38.386Z,1001.05
2017-02-02T09:03:48.764Z,1001.06
2017-02-02T09:04:58.715Z,1001.01
2017-02-02T09:06:08.272Z,1001.06
2017-02-02T09:07:19.036Z,1001.07
2017-02-02T09:08:28.609Z,1001.06
2017-02-02T09:09:39.360Z,1001.08
2017-02-02T09:10:50.116Z,1001.15
2017-02-02T09:12:00.485Z,1001.18
2017-02-02T09:13:10.841Z,1001.2
2017-02-02T09:14:21.631Z,1001.2
2017-02-02T09:15:32.371Z,1001.24
2017-02-02T09:16:43.127Z,1001.23
2017-02-02T09:17:53.888Z,1001.2
2017-02-02T09:19:04.621Z,1001.16
2017-02-02T09:20:14.976Z,1001.16
2017-02-02T09:21:25.324Z,1001.13
2017-02-02T09:22:35.669Z,1001.12
2017-02-02T09:23:45.623Z,1001.19
2017-02-02T09:24:56.373Z,1001.16
2017-02-02T09:26:06.720Z,1001.19
2017-02-02T09:27:17.082Z,1001.18
2017-02-02T09:28:27.036Z,1001.21
2017-02-02T09:29:37.391Z,1001.18
2017-02-02T09:30:47.346Z,1001.2
2017-02-02T09:31:57.303Z,1001.13
2017-02-02T09:33:07.686Z,1001.11
2017-02-02T09:34:18.032Z,1001.1
2017-02-02T09:35:28.623Z,1001.11
2017-02-02T09:36:39.370Z,1001.1
2017-02-02T09:37:49.727Z,1001.07
2017-02-02T09:39:00.480Z,1001.09
2017-02-02T09:40:10.440Z,1001.03
2017-02-02T09:41:20.401Z,1001.08
2017-02-02T09:42:31.149Z,1001.07
2017-02-02T09:43:41.518Z,1001.02
2017-02-02T09:44:52.270Z,1001.06
2017-02-02T09:46:03.037Z,1001.02
2017-02-02T09:47:13.776Z,1001.01
2017-02-02T09:48:24.554Z,1000.95
2017-02-02T09:49:35.313Z,1000.99
2017-02-02T09:50:46.054Z,1001.04
2017-02-02T09:51:56.419Z,1001.02
2017-02-02T09:53:07.367Z,1001.03
2017-02-02T09:54:18.109Z,1001
2017-02-02T09:55:28.842Z,1001
2017-02-02T09:56:39.194Z,1001.03
2017-02-02T09:57:49.544Z,1000.96
2017-02-02T09:58:59.512Z,1000.97
2017-02-02T10:00:10.257Z,1000.94
2017-02-02T10:01:21.013Z,1000.9
2017-02-02T10:02:31.379Z,1000.91
2017-02-02T10:03:41.724Z,1000.91
2017-02-02T10:04:51.691Z,1000.9
2017-02-02T10:06:02.067Z,1000.88
2017-02-02T10:07:12.813Z,1000.81
2017-02-02T10:08:21.972Z,1000.82
2017-02-02T10:09:32.715Z,1000.77
2017-02-02T10:10:43.079Z,1000.78
2017-02-02T10:11:53.827Z,1000.8
2017-02-02T10:13:04.606Z,1000.76
2017-02-02T10:14:14.970Z,1000.75
2017-02-02T10:15:24.541Z,1000.73
2017-02-02T10:16:34.891Z,1000.72
2017-02-02T10:17:45.243Z,1000.77
2017-02-02T10:18:55.996Z,1000.77
2017-02-02T10:20:06.749Z,1000.81
2017-02-02T10:21:17.496Z,1000.78
2017-02-02T10:22:27.867Z,1000.76
2017-02-02T10:23:37.833Z,1000.74
2017-02-02T10:24:48.192Z,1000.74
2017-02-02T10:25:58.219Z,1000.69
2017-02-02T10:27:09.014Z,1000.68
2017-02-02T10:28:19.405Z,1000.68
2017-02-02T10:29:30.137Z,1000.72
2017-02-02T10:30:40.500Z,1000.63
2017-02-02T10:31:51.240Z,1000.68
2017-02-02T10:33:01.602Z,1000.61
2017-02-02T10:34:11.175Z,1000.62
2017-02-02T10:35:21.944Z,1000.6
2017-02-02T10:36:32.694Z,1000.59
2017-02-02T10:37:43.443Z,1000.61
2017-02-02T10:38:53.837Z,1000.6
2017-02-02T10:40:04.195Z,1000.58
2017-02-02T10:41:14.159Z,1000.61
2017-02-02T10:42:24.920Z,1000.59
2017-02-02T10:43:35.278Z,1000.59
2017-02-02T10:44:46.040Z,1000.57
2017-02-02T10:45:56.020Z,1000.54
2017-02-02T10:47:06.380Z,1000.51
2017-02-02T10:48:16.751Z,1000.45
2017-02-02T10:49:27.502Z,1000.42
2017-02-02T10:50:37.843Z,1000.39
2017-02-02T10:51:47.422Z,1000.34
2017-02-02T10:52:58.160Z,1000.32
2017-02-02T10:54:08.527Z,1000.37
2017-02-02T10:55:19.300Z,1000.33
2017-02-02T10:56:29.654Z,1000.28
2017-02-02T10:57:40.006Z,1000.21
2017-02-02T10:58:50.760Z,1000.13
2017-02-02T11:00:01.145Z,1000.11
2017-02-02T11:01:11.518Z,1000.04
2017-02-02T11:02:22.301Z,999.98
2017-02-02T11:03:33.057Z,999.97
2017-02-02T11:04:43.479Z,999.95
2017-02-02T11:05:53.861Z,999.94
2017-02-02T11:07:04.657Z,999.86
2017-02-02T11:08:14.640Z,999.8
2017-02-02T11:09:24.991Z,999.8
2017-02-02T11:10:34.968Z,999.73
2017-02-02T11:11:45.796Z,999.68
2017-02-02T11:12:56.136Z,999.68
2017-02-02T11:14:06.525Z,999.66
2017-02-02T11:15:16.908Z,999.67
2017-02-02T11:16:27.663Z,999.68
2017-02-02T11:17:38.411Z,999.69
2017-02-02T11:18:48.759Z,999.74
2017-02-02T11:19:58.757Z,999.73
2017-02-02T11:21:09.521Z,999.7
2017-02-02T11:22:20.287Z,999.69
2017-02-02T11:23:31.051Z,999.66
2017-02-02T11:24:41.419Z,999.63
2017-02-02T11:25:50.995Z,999.6
2017-02-02T11:27:00.956Z,999.62
2017-02-02T11:28:11.704Z,999.61
2017-02-02T11:29:22.091Z,999.59
2017-02-02T11:30:32.041Z,999.6
2017-02-02T11:31:42.789Z,999.6
2017-02-02T11:32:53.568Z,999.54
2017-02-02T11:34:03.575Z,999.49
2017-02-02T11:35:14.338Z,999.42
2017-02-02T11:36:24.694Z,999.39
2017-02-02T11:37:35.047Z,999.36
2017-02-02T11:38:45.833Z,999.37
2017-02-02T11:39:56.198Z,999.37
2017-02-02T11:41:06.994Z,999.33
2017-02-02T11:42:17.760Z,999.31
2017-02-02T11:43:28.116Z,999.32
2017-02-02T11:44:38.486Z,999.29
2017-02-02T11:45:49.230Z,999.28
2017-02-02T11:46:59.590Z,999.34
2017-02-02T11:48:09.549Z,999.34
2017-02-02T11:49:19.936Z,999.35
2017-02-02T11:50:30.676Z,999.35
2017-02-02T11:51:41.033Z,999.27
2017-02-02T11:52:51.383Z,999.21
2017-02-02T11:54:01.730Z,999.15
2017-02-02T11:55:11.709Z,999.16
2017-02-02T11:56:22.478Z,999.17
2017-02-02T11:57:33.234Z,999.2
2017-02-02T11:58:44.040Z,999.16
2017-02-02T11:59:54.801Z,999.12
2017-02-02T12:01:05.206Z,999.13
2017-02-02T12:02:15.177Z,999.12
2017-02-02T12:03:25.934Z,999.13
2017-02-02T12:04:36.748Z,999.11
2017-02-02T12:05:47.607Z,999.15
2017-02-02T12:06:57.958Z,999.14
2017-02-02T12:08:08.727Z,999.15
2017-02-02T12:09:19.508Z,999.13
2017-02-02T12:10:29.858Z,999.15
2017-02-02T12:11:40.206Z,999.13
2017-02-02T12:12:50.567Z,999.14
2017-02-02T12:14:01.316Z,999.07
2017-02-02T12:15:11.668Z,999.04
2017-02-02T12:16:22.646Z,999.02
2017-02-02T12:17:32.614Z,998.99
2017-02-02T12:18:42.970Z,998.99
2017-02-02T12:19:53.332Z,999.03
2017-02-02T12:21:04.087Z,999.01
2017-02-02T12:22:14.051Z,998.99
2017-02-02T12:23:24.804Z,998.89
2017-02-02T12:24:34.771Z,998.88
2017-02-02T12:25:45.531Z,998.84
2017-02-02T12:26:56.296Z,998.83
2017-02-02T12:28:06.636Z,998.84
2017-02-02T12:29:17.388Z,998.8
2017-02-02T12:30:28.135Z,998.77
2017-02-02T12:31:38.480Z,998.74
2017-02-02T12:32:49.258Z,998.78
2017-02-02T12:33:59.646Z,998.81
2017-02-02T12:35:10.006Z,998.81
2017-02-02T12:36:20.753Z,998.84
2017-02-02T12:37:31.089Z,998.82
2017-02-02T12:38:41.428Z,998.74
2017-02-02T12:39:51.773Z,998.74
2017-02-02T12:41:02.567Z,998.71
2017-02-02T12:42:12.931Z,998.71
2017-02-02T12:43:23.290Z,998.69
2017-02-02T12:44:33.639Z,998.65
2017-02-02T12:45:43.987Z,998.61
2017-02-02T12:46:54.339Z,998.57
2017-02-02T12:48:05.113Z,998.56
2017-02-02T12:49:15.467Z,998.54
2017-02-02T12:50:25.828Z,998.56
2017-02-02T12:51:36.568Z,998.56
2017-02-02T12:52:47.318Z,998.61
2017-02-02T12:53:57.685Z,998.63
2017-02-02T12:55:07.245Z,998.66
2017-02-02T12:56:17.202Z,998.67
2017-02-02T12:57:27.599Z,998.67
2017-02-02T12:58:38.356Z,998.66
2017-02-02T12:59:48.313Z,998.64
2017-02-02T13:00:58.682Z,998.62
2017-02-02T13:02:09.030Z,998.72
2017-02-02T13:03:19.778Z,998.68
2017-02-02T13:04:30.584Z,998.69
2017-02-02T13:05:41.345Z,998.64
2017-02-02T13:06:51.318Z,998.58
2017-02-02T13:08:01.290Z,998.58
2017-02-02T13:09:12.034Z,998.53
2017-02-02T13:10:22.804Z,998.51
2017-02-02T13:11:33.754Z,998.5
2017-02-02T13:12:44.517Z,998.52
2017-02-02T13:13:54.863Z,998.51
2017-02-02T13:15:05.220Z,998.55
2017-02-02T13:16:15.983Z,998.55
2017-02-02T13:17:26.343Z,998.56
2017-02-02T13:18:36.703Z,998.51
2017-02-02T13:19:47.091Z,998.46
2017-02-02T13:20:57.872Z,998.46
2017-02-02T13:22:08.626Z,998.42
2017-02-02T13:23:19.001Z,998.43
2017-02-02T13:24:29.759Z,998.45
2017-02-02T13:25:40.490Z,998.45
2017-02-02T13:26:51.245Z,998.43
2017-02-02T13:28:01.600Z,998.49
2017-02-02T13:29:12.355Z,998.44
2017-02-02T13:30:22.750Z,998.39
2017-02-02T13:31:33.124Z,998.45
2017-02-02T13:32:43.909Z,998.42
2017-02-02T13:33:54.254Z,998.41
2017-02-02T13:35:05.033Z,998.37
2017-02-02T13:36:15.397Z,998.39
2017-02-02T13:37:25.752Z,998.4
2017-02-02T13:38:36.103Z,998.43
2017-02-02T13:39:46.869Z,998.41
2017-02-02T13:40:57.227Z,998.36
2017-02-02T13:42:07.577Z,998.4
2017-02-02T13:43:17.953Z,998.35
2017-02-02T13:44:28.296Z,998.29
2017-02-02T13:45:38.645Z,998.26
2017-02-02T13:46:48.613Z,998.23
2017-02-02T13:47:59.400Z,998.2
2017-02-02T13:49:10.181Z,998.16
2017-02-02T13:50:20.387Z,998.18
2017-02-02T13:51:30.394Z,998.21
2017-02-02T13:52:40.812Z,998.23
2017-02-02T13:53:51.649Z,998.21
2017-02-02T13:55:02.438Z,998.22
2017-02-02T13:56:12.799Z,998.14
2017-02-02T13:57:23.553Z,998.14
2017-02-02T13:58:33.899Z,998.11
2017-02-02T13:59:44.640Z,998.09
2017-02-02T14:00:55.016Z,998.08
2017-02-02T14:02:05.360Z,998.07
2017-02-02T14:03:16.096Z,998.05
2017-02-02T14:04:26.831Z,998.09
2017-02-02T14:05:37.218Z,998.09
2017-02-02T14:06:47.982Z,998.15
2017-02-02T14:07:57.937Z,998.18
2017-02-02T14:09:07.897Z,998.18
2017-02-02T14:10:18.635Z,998.2
2017-02-02T14:11:29.001Z,998.18
2017-02-02T14:12:39.359Z,998.17
2017-02-02T14:13:49.716Z,998.12
2017-02-02T14:15:00.467Z,998.16
2017-02-02T14:16:10.818Z,998.11
2017-02-02T14:17:21.164Z,998.12
2017-02-02T14:18:31.923Z,998.05
2017-02-02T14:19:42.275Z,998.07
2017-02-02T14:20:53.040Z,998.04
2017-02-02T14:22:02.996Z,998.06
2017-02-02T14:23:13.345Z,998.05
2017-02-02T14:24:23.702Z,998.06
2017-02-02T14:25:34.462Z,998.08
2017-02-02T14:26:45.214Z,998.08
2017-02-02T14:27:55.967Z,998.09
2017-02-02T14:29:06.314Z,998.11
2017-02-02T14:30:16.660Z,998.09
2017-02-02T14:31:27.062Z,998.08
2017-02-02T14:32:37.849Z,998.09
2017-02-02T14:33:48.610Z,998.15
2017-02-02T14:34:58.983Z,998.18
2017-02-02T14:36:09.334Z,998.28
2017-02-02T14:37:20.090Z,998.24
2017-02-02T14:38:30.842Z,998.28
2017-02-02T14:39:41.185Z,998.27
2017-02-02T14:40:51.945Z,998.25
2017-02-02T14:42:01.910Z,998.29
2017-02-02T14:43:11.876Z,998.31
2017-02-02T14:44:22.622Z,998.35
2017-02-02T14:45:33.383Z,998.38
2017-02-02T14:46:43.739Z,998.36
2017-02-02T14:47:54.482Z,998.31
2017-02-02T14:49:05.241Z,998.31
2017-02-02T14:50:15.210Z,998.31
2017-02-02T14:51:25.967Z,998.31
2017-02-02T14:52:36.320Z,998.32